createdAt,value
2023-05-14T00:00:06.402Z,6.76
2023-05-14T00:02:32.981Z,6.72
2023-05-14T00:04:59.566Z,6.69
2023-05-14T00:07:27.408Z,6.67
2023-05-14T00:09:53.929Z,6.65
2023-05-14T00:12:20.449Z,6.61
2023-05-14T00:14:47.006Z,6.60
2023-05-14T00:17:13.710Z,6.60
2023-05-14T00:19:40.190Z,6.61
2023-05-14T00:22:06.677Z,6.58
2023-05-14T00:24:34.862Z,6.54
2023-05-14T00:27:01.494Z,6.52
2023-05-14T00:29:28.199Z,6.50
2023-05-14T00:31:54.824Z,6.48
2023-05-14T00:34:21.576Z,6.44
2023-05-14T00:36:48.142Z,6.40
2023-05-14T00:39:14.611Z,6.37
2023-05-14T00:41:42.597Z,6.32
2023-05-14T00:44:09.250Z,6.30
2023-05-14T00:46:35.916Z,6.26
2023-05-14T00:49:02.674Z,6.25
2023-05-14T00:51:29.565Z,6.22
2023-05-14T00:53:56.288Z,6.22
2023-05-14T00:56:23.369Z,6.23
2023-05-14T00:58:51.344Z,6.22
2023-05-14T01:01:17.876Z,6.24
2023-05-14T01:03:44.976Z,6.25
2023-05-14T01:06:17.999Z,6.26
2023-05-14T01:08:57.242Z,6.28
2023-05-14T01:11:29.007Z,6.26
2023-05-14T01:14:09.480Z,6.25
2023-05-14T01:16:40.055Z,6.24
2023-05-14T01:19:21.323Z,6.21
2023-05-14T01:21:49.134Z,6.19
2023-05-14T01:24:15.630Z,6.16
2023-05-14T01:26:42.293Z,6.16
2023-05-14T01:29:17.396Z,6.12
2023-05-14T01:31:47.060Z,6.14
2023-05-14T01:34:14.500Z,6.10
2023-05-14T01:36:42.133Z,6.10
2023-05-14T01:39:11.696Z,6.09
2023-05-14T01:41:42.616Z,6.07
2023-05-14T01:44:09.732Z,6.07
2023-05-14T01:46:36.288Z,6.02
2023-05-14T01:49:03.056Z,5.98
2023-05-14T01:51:29.736Z,5.94
2023-05-14T01:53:56.195Z,5.90
2023-05-14T01:56:24.277Z,5.87
2023-05-14T01:58:50.833Z,5.85
2023-05-14T02:01:17.436Z,5.81
2023-05-14T02:03:44.240Z,5.78
2023-05-14T02:06:10.748Z,5.78
2023-05-14T02:08:37.432Z,5.73
2023-05-14T02:11:04.086Z,5.74
2023-05-14T02:13:31.980Z,5.70
2023-05-14T02:15:58.602Z,5.67
2023-05-14T02:18:25.391Z,5.65
2023-05-14T02:20:51.888Z,5.63
2023-05-14T02:23:18.719Z,5.61
2023-05-14T02:25:46.014Z,5.61
2023-05-14T02:28:12.479Z,5.57
2023-05-14T02:30:40.434Z,5.56
2023-05-14T02:33:07.028Z,5.49
2023-05-14T02:35:33.802Z,5.45
2023-05-14T02:38:00.285Z,5.44
2023-05-14T02:40:26.947Z,5.41
2023-05-14T02:42:53.470Z,5.41
2023-05-14T02:45:20.094Z,5.37
2023-05-14T02:47:47.955Z,5.36
2023-05-14T02:50:14.623Z,5.34
2023-05-14T02:52:41.159Z,5.32
2023-05-14T02:55:08.522Z,5.35
2023-05-14T02:57:34.997Z,5.33
2023-05-14T03:00:01.528Z,5.29
2023-05-14T03:02:28.724Z,5.28
2023-05-14T03:04:57.037Z,5.28
2023-05-14T03:07:23.684Z,5.25
2023-05-14T03:09:50.307Z,5.24
2023-05-14T03:12:16.978Z,5.23
2023-05-14T03:14:43.858Z,5.27
2023-05-14T03:17:10.394Z,5.28
2023-05-14T03:19:36.950Z,5.27
2023-05-14T03:22:05.088Z,5.26
2023-05-14T03:24:31.726Z,5.26
2023-05-14T03:26:58.183Z,5.28
2023-05-14T03:29:24.730Z,5.28
2023-05-14T03:31:51.410Z,5.27
2023-05-14T03:34:17.963Z,5.25
2023-05-14T03:36:44.439Z,5.31
2023-05-14T03:39:12.423Z,5.31
2023-05-14T03:41:38.954Z,5.30
2023-05-14T03:44:05.544Z,5.31
2023-05-14T03:46:32.205Z,5.33
2023-05-14T03:48:58.804Z,5.35
2023-05-14T03:51:25.362Z,5.37
2023-05-14T03:53:51.846Z,5.41
2023-05-14T03:56:19.732Z,5.44
2023-05-14T03:58:46.232Z,5.48
2023-05-14T04:01:12.755Z,5.52
2023-05-14T04:03:39.702Z,5.56
2023-05-14T04:06:06.582Z,5.60
2023-05-14T04:08:33.231Z,5.66
2023-05-14T04:10:59.786Z,5.71
2023-05-14T04:13:27.626Z,5.81
2023-05-14T04:15:54.165Z,5.86
2023-05-14T04:18:20.741Z,5.98
2023-05-14T04:20:47.398Z,6.07
2023-05-14T04:23:13.922Z,6.14
2023-05-14T04:25:40.600Z,6.20
2023-05-14T04:28:07.081Z,6.26
2023-05-14T04:30:34.946Z,6.35
2023-05-14T04:33:01.469Z,6.44
2023-05-14T04:35:28.232Z,6.52
2023-05-14T04:37:54.799Z,6.60
2023-05-14T04:40:21.942Z,6.68
2023-05-14T04:42:48.718Z,6.76
2023-05-14T04:45:15.444Z,6.83
2023-05-14T04:47:43.319Z,6.92
2023-05-14T04:50:10.062Z,6.99
2023-05-14T04:52:36.808Z,7.04
2023-05-14T04:55:03.558Z,7.14
2023-05-14T04:57:30.039Z,7.19
2023-05-14T04:59:56.530Z,7.21
2023-05-14T05:02:23.242Z,7.24
2023-05-14T05:04:51.154Z,7.35
2023-05-14T05:07:17.663Z,7.43
2023-05-14T05:09:44.382Z,7.51
2023-05-14T05:12:10.849Z,7.58
2023-05-14T05:14:37.379Z,7.60
2023-05-14T05:17:04.240Z,7.70
2023-05-14T05:19:42.551Z,7.81
2023-05-14T05:22:12.064Z,7.84
2023-05-14T05:24:38.798Z,7.93
2023-05-14T05:27:05.889Z,8.01
2023-05-14T05:29:32.447Z,8.06
2023-05-14T05:31:59.263Z,8.15
2023-05-14T05:34:25.929Z,8.22
2023-05-14T05:36:52.455Z,8.23
2023-05-14T05:39:20.286Z,8.32
2023-05-14T05:41:46.842Z,8.33
2023-05-14T05:44:13.512Z,8.38
2023-05-14T05:46:40.182Z,8.42
2023-05-14T05:49:06.693Z,8.44
2023-05-14T05:51:33.355Z,8.55
2023-05-14T05:53:59.863Z,8.65
2023-05-14T05:56:27.727Z,8.73
2023-05-14T05:58:54.285Z,8.79
2023-05-14T06:01:20.875Z,8.82
2023-05-14T06:03:48.714Z,8.88
2023-05-14T06:06:15.369Z,9.02
2023-05-14T06:08:42.041Z,9.07
2023-05-14T06:11:08.550Z,9.12
2023-05-14T06:13:36.454Z,9.24
2023-05-14T06:16:03.003Z,9.26
2023-05-14T06:18:29.665Z,9.33
2023-05-14T06:20:56.192Z,9.42
2023-05-14T06:23:22.752Z,9.59
2023-05-14T06:25:50.767Z,9.64
2023-05-14T06:28:17.632Z,9.73
2023-05-14T06:30:45.485Z,9.95
2023-05-14T06:33:12.004Z,10.17
2023-05-14T06:35:38.552Z,10.22
2023-05-14T06:38:05.089Z,10.17
2023-05-14T06:40:31.569Z,10.28
2023-05-14T06:42:58.137Z,10.35
2023-05-14T06:45:24.654Z,10.52
2023-05-14T06:47:52.711Z,10.65
2023-05-14T06:50:19.330Z,10.71
2023-05-14T06:52:45.857Z,10.90
2023-05-14T06:55:12.390Z,10.95
2023-05-14T06:57:40.673Z,11.09
2023-05-14T07:00:08.643Z,11.27
2023-05-14T07:02:35.224Z,11.40
2023-05-14T07:05:03.250Z,11.36
2023-05-14T07:07:29.758Z,11.52
2023-05-14T07:09:56.258Z,11.69
2023-05-14T07:12:22.739Z,11.51
2023-05-14T07:14:49.407Z,11.68
2023-05-14T07:17:16.055Z,11.79
2023-05-14T07:19:42.807Z,11.77
2023-05-14T07:22:10.607Z,11.76
2023-05-14T07:24:37.138Z,11.89
2023-05-14T07:27:04.183Z,12.17
2023-05-14T07:29:30.669Z,12.16
2023-05-14T07:31:57.188Z,12.39
2023-05-14T07:34:23.690Z,12.59
2023-05-14T07:36:50.299Z,12.48
2023-05-14T07:39:18.279Z,12.60
2023-05-14T07:41:44.958Z,12.95
2023-05-14T07:44:11.431Z,13.02
2023-05-14T07:46:38.000Z,13.26
2023-05-14T07:49:04.572Z,13.46
2023-05-14T07:51:31.199Z,13.65
2023-05-14T07:53:57.731Z,14.22
2023-05-14T07:56:25.593Z,14.26
2023-05-14T07:58:52.140Z,14.42
2023-05-14T08:01:18.681Z,14.73
2023-05-14T08:03:45.295Z,14.66
2023-05-14T08:06:11.832Z,14.58
2023-05-14T08:08:38.285Z,14.35
2023-05-14T08:11:05.241Z,14.03
2023-05-14T08:13:33.089Z,14.01
2023-05-14T08:15:59.634Z,14.34
2023-05-14T08:18:26.219Z,15.09
2023-05-14T08:20:52.807Z,15.69
2023-05-14T08:23:19.357Z,16.31
2023-05-14T08:25:45.897Z,16.02
2023-05-14T08:28:12.415Z,16.06
2023-05-14T08:30:40.351Z,16.18
2023-05-14T08:33:06.906Z,16.41
2023-05-14T08:35:33.689Z,16.57
2023-05-14T08:38:00.185Z,16.55
2023-05-14T08:40:27.166Z,16.55
2023-05-14T08:42:56.306Z,16.68
2023-05-14T08:45:28.645Z,16.82
2023-05-14T08:47:58.289Z,16.70
2023-05-14T08:50:25.570Z,16.98
2023-05-14T08:52:53.008Z,17.18
2023-05-14T08:55:19.900Z,17.57
2023-05-14T08:57:46.653Z,17.93
2023-05-14T09:00:14.325Z,17.78
2023-05-14T09:02:42.053Z,18.43
2023-05-14T09:05:10.426Z,18.60
2023-05-14T09:07:37.078Z,18.63
2023-05-14T09:10:04.632Z,19.32
2023-05-14T09:12:31.333Z,19.99
2023-05-14T09:14:57.926Z,20.21
2023-05-14T09:17:26.619Z,20.53
2023-05-14T09:19:53.465Z,20.88
2023-05-14T09:22:21.889Z,20.59
2023-05-14T09:25:02.332Z,20.69
2023-05-14T09:27:30.103Z,21.44
2023-05-14T09:29:56.635Z,21.43
2023-05-14T09:32:23.110Z,22.03
2023-05-14T09:34:49.752Z,22.32
2023-05-14T09:37:16.275Z,22.22
2023-05-14T09:39:44.135Z,20.98
2023-05-14T09:42:10.617Z,21.21
2023-05-14T09:44:37.275Z,22.40
2023-05-14T09:47:04.131Z,22.25
2023-05-14T09:49:30.624Z,22.68
2023-05-14T09:51:57.080Z,21.99
2023-05-14T09:54:25.939Z,21.76
2023-05-14T09:56:55.642Z,21.39
2023-05-14T09:59:22.534Z,21.62
2023-05-14T10:01:49.780Z,21.92
2023-05-14T10:04:16.792Z,21.75
2023-05-14T10:06:48.130Z,22.29
2023-05-14T10:09:18.226Z,22.54
2023-05-14T10:11:47.994Z,23.47
2023-05-14T10:14:24.848Z,23.52
2023-05-14T10:16:52.240Z,22.75
2023-05-14T10:19:23.431Z,21.49
2023-05-14T10:21:59.656Z,22.11
2023-05-14T10:24:27.066Z,23.00
2023-05-14T10:26:53.827Z,23.02
2023-05-14T10:29:32.469Z,22.17
2023-05-14T10:31:59.017Z,21.52
2023-05-14T10:34:32.688Z,21.11
2023-05-14T10:36:59.914Z,21.05
2023-05-14T10:39:40.544Z,21.22
2023-05-14T10:42:08.338Z,21.04
2023-05-14T10:44:40.758Z,22.09
2023-05-14T10:47:07.313Z,23.33
2023-05-14T10:49:42.916Z,23.65
2023-05-14T10:52:11.701Z,23.91
2023-05-14T10:54:38.317Z,23.44
2023-05-14T10:57:11.062Z,22.88
2023-05-14T10:59:41.770Z,22.71
2023-05-14T11:02:20.414Z,22.35
2023-05-14T11:04:53.384Z,22.09
2023-05-14T11:07:24.360Z,22.08
2023-05-14T11:09:51.314Z,22.34
2023-05-14T11:12:18.381Z,23.46
2023-05-14T11:14:46.928Z,24.35
2023-05-14T11:17:13.694Z,23.57
2023-05-14T11:19:43.332Z,23.50
2023-05-14T11:22:09.930Z,23.12
2023-05-14T11:24:36.419Z,23.42
2023-05-14T11:27:02.902Z,24.33
2023-05-14T11:29:29.411Z,23.62
2023-05-14T11:31:57.401Z,23.53
2023-05-14T11:34:23.963Z,22.87
2023-05-14T11:36:50.586Z,22.52
2023-05-14T11:39:18.119Z,22.08
2023-05-14T11:41:45.024Z,22.06
2023-05-14T11:44:11.811Z,21.85
2023-05-14T11:46:38.456Z,21.75
2023-05-14T11:49:10.137Z,21.83
2023-05-14T11:51:36.589Z,21.91
2023-05-14T11:54:03.104Z,21.92
2023-05-14T11:56:29.686Z,22.12
2023-05-14T11:58:57.209Z,22.40
2023-05-14T12:01:26.361Z,22.60
2023-05-14T12:03:53.034Z,22.55
2023-05-14T12:06:20.924Z,21.96
2023-05-14T12:08:47.744Z,22.16
2023-05-14T12:11:14.428Z,23.50
2023-05-14T12:13:41.070Z,24.28
2023-05-14T12:16:07.735Z,24.25
2023-05-14T12:18:36.696Z,24.75
2023-05-14T12:21:04.460Z,26.03
2023-05-14T12:23:32.842Z,26.80
2023-05-14T12:26:01.893Z,26.85
2023-05-14T12:28:28.551Z,27.31
2023-05-14T12:30:56.689Z,26.16
2023-05-14T12:33:23.567Z,24.55
2023-05-14T12:35:50.077Z,23.77
2023-05-14T12:38:16.639Z,23.03
2023-05-14T12:40:44.544Z,22.73
2023-05-14T12:43:11.270Z,22.85
2023-05-14T12:45:37.807Z,24.29
2023-05-14T12:48:04.431Z,24.93
2023-05-14T12:50:31.048Z,25.53
2023-05-14T12:52:57.626Z,26.84
2023-05-14T12:55:24.350Z,27.25
2023-05-14T12:57:52.338Z,26.93
2023-05-14T13:00:19.372Z,27.31
2023-05-14T13:02:45.910Z,25.70
2023-05-14T13:05:12.623Z,24.47
2023-05-14T13:07:39.362Z,23.72
2023-05-14T13:10:06.948Z,23.63
2023-05-14T13:12:33.740Z,23.41
2023-05-14T13:15:01.610Z,23.03
2023-05-14T13:17:28.242Z,22.86
2023-05-14T13:19:54.819Z,22.42
2023-05-14T13:22:21.336Z,23.74
2023-05-14T13:24:47.822Z,24.29
2023-05-14T13:27:14.281Z,24.19
2023-05-14T13:29:40.749Z,24.95
2023-05-14T13:32:08.821Z,25.50
2023-05-14T13:34:35.438Z,26.12
2023-05-14T13:37:02.026Z,26.35
2023-05-14T13:39:28.629Z,26.55
2023-05-14T13:41:55.071Z,25.99
2023-05-14T13:44:21.625Z,24.83
2023-05-14T13:46:48.316Z,24.84
2023-05-14T13:49:16.369Z,25.58
2023-05-14T13:51:42.882Z,26.69
2023-05-14T13:54:09.718Z,26.66
2023-05-14T13:56:36.408Z,26.90
2023-05-14T13:59:03.175Z,26.79
2023-05-14T14:01:29.745Z,26.60
2023-05-14T14:03:56.331Z,25.51
2023-05-14T14:06:25.725Z,24.67
2023-05-14T14:08:52.166Z,24.24
2023-05-14T14:11:18.768Z,23.53
2023-05-14T14:13:46.698Z,24.39
2023-05-14T14:16:13.494Z,25.65
2023-05-14T14:18:40.120Z,26.07
2023-05-14T14:21:06.897Z,26.13
2023-05-14T14:23:34.918Z,25.55
2023-05-14T14:26:01.413Z,24.74
2023-05-14T14:28:28.085Z,23.41
2023-05-14T14:30:54.568Z,22.73
2023-05-14T14:33:21.260Z,22.10
2023-05-14T14:35:47.926Z,21.66
2023-05-14T14:38:14.592Z,21.11
2023-05-14T14:40:42.448Z,20.91
2023-05-14T14:43:09.019Z,21.13
2023-05-14T14:45:35.525Z,21.00
2023-05-14T14:48:27.478Z,21.03
2023-05-14T14:50:54.841Z,20.84
2023-05-14T14:53:22.926Z,20.82
2023-05-14T14:55:51.429Z,20.71
2023-05-14T14:58:19.268Z,20.75
2023-05-14T15:00:45.881Z,20.81
2023-05-14T15:03:12.512Z,20.54
2023-05-14T15:05:39.175Z,20.32
2023-05-14T15:08:05.751Z,19.79
2023-05-14T15:10:32.600Z,19.16
2023-05-14T15:13:00.599Z,18.59
2023-05-14T15:15:27.108Z,18.03
2023-05-14T15:17:53.616Z,17.69
2023-05-14T15:20:20.337Z,17.38
2023-05-14T15:22:47.096Z,17.12
2023-05-14T15:25:13.633Z,16.99
2023-05-14T15:27:40.189Z,16.82
2023-05-14T15:30:09.364Z,16.63
2023-05-14T15:32:36.091Z,16.63
2023-05-14T15:35:02.866Z,16.51
2023-05-14T15:37:36.221Z,16.34
2023-05-14T15:40:03.398Z,16.36
2023-05-14T15:42:30.184Z,16.35
2023-05-14T15:44:56.755Z,16.38
2023-05-14T15:47:24.877Z,16.02
2023-05-14T15:49:51.340Z,15.66
2023-05-14T15:52:18.024Z,15.45
2023-05-14T15:54:46.538Z,15.34
2023-05-14T15:57:13.108Z,15.26
2023-05-14T15:59:39.750Z,15.27
2023-05-14T16:02:06.860Z,15.23
2023-05-14T16:04:34.784Z,15.24
2023-05-14T16:07:02.281Z,15.23
2023-05-14T16:09:28.783Z,15.21
2023-05-14T16:11:55.355Z,15.08
2023-05-14T16:14:21.875Z,14.90
2023-05-14T16:16:48.563Z,14.90
2023-05-14T16:19:15.333Z,15.02
2023-05-14T16:21:43.737Z,15.08
2023-05-14T16:24:10.297Z,14.88
2023-05-14T16:26:36.801Z,14.88
2023-05-14T16:29:04.140Z,14.94
2023-05-14T16:31:30.841Z,14.89
2023-05-14T16:33:57.491Z,15.06
2023-05-14T16:36:25.410Z,15.20
2023-05-14T16:39:06.610Z,15.33
2023-05-14T16:41:34.302Z,15.71
2023-05-14T16:44:00.746Z,16.09
2023-05-14T16:46:27.501Z,16.63
2023-05-14T16:48:54.047Z,16.80
2023-05-14T16:51:20.611Z,16.69
2023-05-14T16:53:47.176Z,16.48
2023-05-14T16:56:15.055Z,16.45
2023-05-14T16:58:41.633Z,16.49
2023-05-14T17:01:09.649Z,17.31
2023-05-14T17:03:36.907Z,17.63
2023-05-14T17:06:03.758Z,17.60
2023-05-14T17:08:30.428Z,18.22
2023-05-14T17:10:56.936Z,18.96
2023-05-14T17:13:24.861Z,19.38
2023-05-14T17:15:51.500Z,19.12
2023-05-14T17:18:18.082Z,19.09
2023-05-14T17:20:44.689Z,19.38
2023-05-14T17:23:11.208Z,19.33
2023-05-14T17:25:37.753Z,19.36
2023-05-14T17:28:04.597Z,19.56
2023-05-14T17:30:32.449Z,19.48
2023-05-14T17:33:00.271Z,19.16
2023-05-14T17:35:26.834Z,18.53
2023-05-14T17:37:53.583Z,17.96
2023-05-14T17:40:20.180Z,17.47
2023-05-14T17:42:46.701Z,17.26
2023-05-14T17:45:13.556Z,17.28
2023-05-14T17:47:41.400Z,16.85
2023-05-14T17:50:09.000Z,16.58
2023-05-14T17:52:35.703Z,16.47
2023-05-14T17:55:02.391Z,16.45
2023-05-14T17:57:29.170Z,16.25
2023-05-14T17:59:55.738Z,15.99
2023-05-14T18:02:22.279Z,15.80
2023-05-14T18:04:50.132Z,15.76
2023-05-14T18:07:16.661Z,15.75
2023-05-14T18:09:43.159Z,15.54
2023-05-14T18:12:09.963Z,15.35
2023-05-14T18:14:36.577Z,15.22
2023-05-14T18:17:03.292Z,15.06
2023-05-14T18:19:29.955Z,14.91
2023-05-14T18:21:57.963Z,14.83
2023-05-14T18:24:24.560Z,14.75
2023-05-14T18:26:51.311Z,14.64
2023-05-14T18:29:17.982Z,14.47
2023-05-14T18:31:44.516Z,14.38
2023-05-14T18:34:11.166Z,14.21
2023-05-14T18:36:37.676Z,14.03
2023-05-14T18:39:05.489Z,14.04
2023-05-14T18:41:31.978Z,13.89
2023-05-14T18:43:58.469Z,13.81
2023-05-14T18:46:25.351Z,13.68
2023-05-14T18:48:51.921Z,13.62
2023-05-14T18:51:18.427Z,13.52
2023-05-14T18:53:45.099Z,13.38
2023-05-14T18:56:13.030Z,13.31
2023-05-14T18:58:39.730Z,13.23
2023-05-14T19:01:06.472Z,13.12
2023-05-14T19:03:33.184Z,13.12
2023-05-14T19:05:59.780Z,13.00
2023-05-14T19:08:26.669Z,12.89
2023-05-14T19:10:53.214Z,12.72
2023-05-14T19:13:21.345Z,12.60
2023-05-14T19:15:47.913Z,12.45
2023-05-14T19:18:14.559Z,12.36
2023-05-14T19:20:41.106Z,12.33
2023-05-14T19:23:07.642Z,12.23
2023-05-14T19:25:36.694Z,12.23
2023-05-14T19:28:03.398Z,12.23
2023-05-14T19:30:31.357Z,12.10
2023-05-14T19:32:58.136Z,12.06
2023-05-14T19:35:25.029Z,11.90
2023-05-14T19:37:51.725Z,11.86
2023-05-14T19:40:18.269Z,11.81
2023-05-14T19:42:44.783Z,11.73
2023-05-14T19:45:11.603Z,11.69
2023-05-14T19:47:39.648Z,11.61
2023-05-14T19:50:07.056Z,11.56
2023-05-14T19:52:33.716Z,11.50
2023-05-14T19:55:00.359Z,11.42
2023-05-14T19:57:26.832Z,11.28
2023-05-14T19:59:53.343Z,11.22
2023-05-14T20:02:19.897Z,11.17
2023-05-14T20:04:47.961Z,11.16
2023-05-14T20:07:15.224Z,11.12
2023-05-14T20:09:42.163Z,11.01
2023-05-14T20:12:09.418Z,10.92
2023-05-14T20:14:36.086Z,10.81
2023-05-14T20:17:02.688Z,10.76
2023-05-14T20:19:29.359Z,10.73
2023-05-14T20:21:57.265Z,10.65
2023-05-14T20:24:23.976Z,10.53
2023-05-14T20:26:50.553Z,10.51
2023-05-14T20:29:17.125Z,10.46
2023-05-14T20:31:43.602Z,10.39
2023-05-14T20:34:10.102Z,10.34
2023-05-14T20:36:36.611Z,10.21
2023-05-14T20:39:04.618Z,10.13
2023-05-14T20:41:31.051Z,10.08
2023-05-14T20:43:57.617Z,10.06
2023-05-14T20:46:24.141Z,10.08
2023-05-14T20:48:50.783Z,10.12
2023-05-14T20:51:17.283Z,10.12
2023-05-14T20:53:43.753Z,10.09
2023-05-14T20:56:11.632Z,10.06
2023-05-14T20:58:38.316Z,10.03
2023-05-14T21:01:04.898Z,9.99
2023-05-14T21:03:31.525Z,9.98
2023-05-14T21:05:58.142Z,10.00
2023-05-14T21:08:24.713Z,10.00
2023-05-14T21:10:51.291Z,9.99
2023-05-14T21:13:19.144Z,9.90
2023-05-14T21:15:45.883Z,9.81
2023-05-14T21:18:12.972Z,9.75
2023-05-14T21:20:39.829Z,9.67
2023-05-14T21:23:06.501Z,9.62
2023-05-14T21:25:33.995Z,9.57
2023-05-14T21:28:00.521Z,9.50
2023-05-14T21:30:28.546Z,9.43
2023-05-14T21:32:55.118Z,9.35
2023-05-14T21:35:21.704Z,9.33
2023-05-14T21:37:48.233Z,9.33
2023-05-14T21:40:14.825Z,9.26
2023-05-14T21:42:41.384Z,9.18
2023-05-14T21:45:08.742Z,9.12
2023-05-14T21:47:37.145Z,9.12
2023-05-14T21:50:04.966Z,9.10
2023-05-14T21:52:31.426Z,9.05
2023-05-14T21:54:57.952Z,9.04
2023-05-14T21:57:26.139Z,8.98
2023-05-14T21:59:53.650Z,8.97
2023-05-14T22:02:20.381Z,8.96
2023-05-14T22:04:48.459Z,9.01
2023-05-14T22:07:15.010Z,9.05
2023-05-14T22:09:41.554Z,9.05
2023-05-14T22:12:08.418Z,9.04
2023-05-14T22:14:34.918Z,9.06
2023-05-14T22:17:01.477Z,9.07
2023-05-14T22:19:28.379Z,9.02
2023-05-14T22:21:56.256Z,8.94
2023-05-14T22:24:22.705Z,8.89
2023-05-14T22:26:49.263Z,8.88
2023-05-14T22:29:15.961Z,8.82
2023-05-14T22:31:42.961Z,8.73
2023-05-14T22:34:09.481Z,8.66
2023-05-14T22:36:36.053Z,8.60
2023-05-14T22:39:04.263Z,8.53
2023-05-14T22:41:30.868Z,8.45
2023-05-14T22:43:57.372Z,8.39
2023-05-14T22:46:24.122Z,8.34
2023-05-14T22:48:50.646Z,8.28
2023-05-14T22:51:17.300Z,8.22
2023-05-14T22:53:43.824Z,8.22
2023-05-14T22:56:11.653Z,8.15
2023-05-14T22:58:38.144Z,8.15
2023-05-14T23:01:04.742Z,8.12
2023-05-14T23:03:31.245Z,8.05
2023-05-14T23:05:57.781Z,8.01
2023-05-14T23:08:24.344Z,7.96
2023-05-14T23:10:50.958Z,7.92
2023-05-14T23:13:18.935Z,7.85
2023-05-14T23:15:45.635Z,7.82
2023-05-14T23:18:15.380Z,7.76
2023-05-14T23:20:41.891Z,7.72
2023-05-14T23:23:08.352Z,7.64
2023-05-14T23:25:35.052Z,7.59
2023-05-14T23:28:01.589Z,7.53
2023-05-14T23:30:29.430Z,7.50
2023-05-14T23:32:55.942Z,7.46
2023-05-14T23:35:22.685Z,7.40
2023-05-14T23:37:49.755Z,7.33
2023-05-14T23:40:16.438Z,7.27
2023-05-14T23:42:43.488Z,7.24
2023-05-14T23:45:11.088Z,7.21
2023-05-14T23:47:39.115Z,7.17
2023-05-14T23:50:06.502Z,7.15
2023-05-14T23:52:33.013Z,7.10
2023-05-14T23:55:00.213Z,7.05
2023-05-14T23:57:26.890Z,7.04
2023-05-14T23:59:53.432Z,7.02
